createdAt,value
2022-12-12T00:01:23.063Z,52.75
2022-12-12T00:03:53.809Z,56.33
2022-12-12T00:06:22.787Z,57.97
2022-12-12T00:08:51.001Z,49.95
2022-12-12T00:11:19.547Z,53.90
2022-12-12T00:13:48.199Z,49.15
2022-12-12T00:16:16.746Z,55.78
2022-12-12T00:18:45.302Z,54.92
2022-12-12T00:21:16.608Z,51.92
2022-12-12T00:23:45.416Z,50.40
2022-12-12T00:26:20.539Z,51.35
2022-12-12T00:28:49.155Z,48.95
2022-12-12T00:31:17.758Z,51.90
2022-12-12T00:33:48.002Z,50.95
2022-12-12T00:36:17.431Z,50.33
2022-12-12T00:38:45.927Z,48.15
2022-12-12T00:41:14.241Z,47.67
2022-12-12T00:43:42.627Z,43.55
2022-12-12T00:46:13.979Z,46.10
2022-12-12T00:48:42.655Z,38.80
2022-12-12T00:51:12.315Z,44.35
2022-12-12T00:53:41.907Z,36.08
2022-12-12T00:56:09.836Z,43.08
2022-12-12T00:58:37.991Z,49.95
2022-12-12T01:01:09.835Z,47.60
2022-12-12T01:03:39.884Z,43.97
2022-12-12T01:06:08.728Z,49.55
2022-12-12T01:08:36.755Z,48.45
2022-12-12T01:11:08.291Z,43.10
2022-12-12T01:13:37.152Z,46.83
2022-12-12T01:16:05.384Z,45.10
2022-12-12T01:18:33.864Z,46.15
2022-12-12T01:21:02.007Z,40.17
2022-12-12T01:23:30.252Z,47.05
2022-12-12T01:26:02.079Z,42.42
2022-12-12T01:30:59.308Z,44.67
2022-12-12T01:33:27.460Z,44.85
2022-12-12T01:35:55.389Z,40.63
2022-12-12T01:38:24.593Z,41.47
2022-12-12T01:40:54.044Z,38.03
2022-12-12T01:43:23.538Z,42.88
2022-12-12T01:46:23.969Z,40.33
2022-12-12T01:48:57.587Z,41.42
2022-12-12T01:51:28.356Z,46.35
2022-12-12T01:54:03.306Z,44.28
2022-12-12T01:56:32.931Z,42.50
2022-12-12T01:59:03.617Z,46.58
2022-12-12T02:01:32.588Z,42.97
2022-12-12T02:04:03.260Z,41.45
2022-12-12T02:06:31.897Z,47.67
2022-12-12T02:09:03.441Z,38.72
2022-12-12T02:11:33.380Z,36.22
2022-12-12T02:14:01.739Z,41.22
2022-12-12T02:16:42.800Z,40.05
2022-12-12T02:19:31.144Z,35.70
2022-12-12T02:22:03.500Z,37.95
2022-12-12T02:24:59.485Z,36.40
2022-12-12T02:27:51.986Z,42.92
2022-12-12T02:30:25.164Z,43.50
2022-12-12T02:33:11.756Z,42.50
2022-12-12T02:35:53.406Z,44.72
2022-12-12T02:38:28.563Z,39.33
2022-12-12T02:41:08.770Z,41.78
2022-12-12T02:43:42.671Z,43.55
2022-12-12T02:46:17.696Z,45.92
2022-12-12T02:48:52.469Z,41.10
2022-12-12T02:51:21.089Z,36.58
2022-12-12T02:53:48.887Z,34.85
2022-12-12T02:56:45.645Z,39.10
2022-12-12T02:59:17.625Z,36.72
2022-12-12T03:01:57.829Z,42.55
2022-12-12T03:04:51.135Z,32.95
2022-12-12T03:07:49.118Z,33.20
2022-12-12T03:10:30.728Z,35.00
2022-12-12T03:13:09.710Z,34.38
2022-12-12T03:15:49.859Z,33.78
2022-12-12T03:18:25.543Z,37.15
2022-12-12T03:21:03.488Z,34.55
2022-12-12T03:23:37.943Z,32.10
2022-12-12T03:26:13.139Z,35.47
2022-12-12T03:28:47.667Z,30.90
2022-12-12T03:31:18.192Z,39.08
2022-12-12T03:33:49.495Z,34.33
2022-12-12T03:36:24.580Z,30.05
2022-12-12T03:38:59.528Z,33.33
2022-12-12T03:41:32.643Z,27.70
2022-12-12T03:44:06.775Z,29.98
2022-12-12T03:46:39.748Z,28.73
2022-12-12T03:49:14.617Z,35.90
2022-12-12T03:51:48.547Z,32.17
2022-12-12T03:54:23.320Z,24.52
2022-12-12T03:56:58.187Z,31.40
2022-12-12T03:59:33.533Z,30.40
2022-12-12T04:02:07.134Z,27.20
2022-12-12T04:04:40.245Z,25.20
2022-12-12T04:07:15.610Z,28.42
2022-12-12T04:10:01.606Z,28.08
2022-12-12T04:12:53.371Z,34.80
2022-12-12T04:15:40.675Z,32.15
2022-12-12T04:18:17.186Z,31.65
2022-12-12T04:21:07.955Z,30.83
2022-12-12T04:23:49.808Z,28.67
2022-12-12T04:26:42.219Z,32.65
2022-12-12T04:29:23.708Z,30.48
2022-12-12T04:31:57.808Z,25.88
2022-12-12T04:34:34.955Z,30.73
2022-12-12T04:37:04.936Z,36.72
2022-12-12T04:39:37.070Z,34.45
2022-12-12T04:42:08.832Z,28.63
2022-12-12T04:44:40.926Z,33.28
2022-12-12T04:47:11.205Z,35.38
2022-12-12T04:49:42.571Z,30.77
2022-12-12T04:52:13.418Z,33.25
2022-12-12T04:54:48.311Z,35.05
2022-12-12T04:57:22.379Z,34.03
2022-12-12T04:59:50.805Z,32.33
2022-12-12T05:02:31.854Z,32.72
2022-12-12T05:05:03.441Z,32.90
2022-12-12T05:07:40.026Z,31.38
2022-12-12T05:10:13.742Z,37.28
2022-12-12T05:12:44.374Z,36.15
2022-12-12T05:15:12.911Z,35.40
2022-12-12T05:17:44.171Z,31.45
2022-12-12T05:20:12.304Z,31.15
2022-12-12T05:22:40.612Z,32.30
2022-12-12T05:25:10.980Z,35.13
2022-12-12T05:27:39.179Z,39.55
2022-12-12T05:30:08.375Z,43.58
2022-12-12T05:32:36.619Z,34.17
2022-12-12T05:35:04.837Z,35.13
2022-12-12T05:37:33.022Z,39.55
2022-12-12T05:40:00.892Z,32.22
2022-12-12T05:42:30.677Z,40.83
2022-12-12T05:44:58.591Z,42.00
2022-12-12T05:47:26.966Z,35.85
2022-12-12T05:49:55.235Z,35.40
2022-12-12T05:52:23.310Z,42.60
2022-12-12T05:54:51.320Z,40.95
2022-12-12T05:57:19.385Z,40.63
2022-12-12T05:59:48.858Z,36.42
2022-12-12T06:02:17.682Z,37.65
2022-12-12T06:04:45.608Z,39.33
2022-12-12T06:07:14.032Z,40.00
2022-12-12T06:09:41.818Z,43.75
2022-12-12T06:12:09.900Z,50.50
2022-12-12T06:14:37.837Z,40.13
2022-12-12T06:17:07.175Z,43.03
2022-12-12T06:19:35.151Z,44.97
2022-12-12T06:22:03.451Z,47.20
2022-12-12T06:24:31.199Z,39.55
2022-12-12T06:26:59.207Z,46.45
2022-12-12T06:29:27.036Z,44.33
2022-12-12T06:31:55.438Z,48.65
2022-12-12T06:34:24.692Z,59.80
2022-12-12T06:36:52.843Z,70.40
2022-12-12T06:39:20.635Z,65.43
2022-12-12T06:41:48.757Z,64.47
2022-12-12T06:44:16.790Z,51.65
2022-12-12T06:46:44.842Z,53.20
2022-12-12T06:49:12.786Z,60.47
2022-12-12T06:51:44.529Z,45.13
2022-12-12T06:54:12.811Z,54.63
2022-12-12T06:56:47.808Z,57.53
2022-12-12T06:59:16.746Z,49.92
2022-12-12T07:01:45.155Z,47.13
2022-12-12T07:04:14.426Z,40.22
2022-12-12T07:06:44.019Z,53.42
2022-12-12T07:09:12.036Z,56.63
2022-12-12T07:11:41.633Z,212.65
2022-12-12T07:14:11.196Z,93.55
2022-12-12T07:16:39.723Z,48.53
2022-12-12T07:19:07.673Z,52.83
2022-12-12T07:21:36.231Z,52.13
2022-12-12T07:24:05.768Z,53.10
2022-12-12T07:26:33.864Z,52.78
2022-12-12T07:29:03.708Z,50.42
2022-12-12T07:31:32.293Z,45.25
2022-12-12T07:34:00.127Z,56.88
2022-12-12T07:36:28.257Z,51.88
2022-12-12T07:38:56.138Z,93.43
2022-12-12T07:41:25.769Z,97.80
2022-12-12T07:43:53.740Z,49.85
2022-12-12T07:46:24.547Z,49.05
2022-12-12T07:48:53.595Z,43.38
2022-12-12T07:51:22.554Z,45.22
2022-12-12T07:53:50.564Z,62.78
2022-12-12T07:56:19.611Z,54.55
2022-12-12T07:58:49.326Z,44.72
2022-12-12T08:01:19.920Z,48.55
2022-12-12T08:03:48.856Z,46.33
2022-12-12T08:06:18.142Z,49.13
2022-12-12T08:08:47.256Z,46.38
2022-12-12T08:11:17.895Z,46.30
2022-12-12T08:13:46.343Z,44.35
2022-12-12T08:16:18.399Z,45.95
2022-12-12T08:18:46.936Z,41.42
2022-12-12T08:21:21.481Z,52.17
2022-12-12T08:23:55.999Z,38.90
2022-12-12T08:26:24.251Z,41.53
2022-12-12T08:28:52.009Z,50.70
2022-12-12T08:31:22.979Z,44.72
2022-12-12T08:33:51.527Z,49.65
2022-12-12T08:36:21.969Z,47.55
2022-12-12T08:38:50.443Z,45.72
2022-12-12T08:41:19.176Z,43.58
2022-12-12T08:43:47.149Z,48.50
2022-12-12T08:46:18.153Z,47.97
2022-12-12T08:48:48.381Z,51.97
2022-12-12T08:51:18.318Z,44.28
2022-12-12T08:53:46.943Z,51.72
2022-12-12T08:56:15.838Z,41.92
2022-12-12T08:58:43.854Z,46.95
2022-12-12T09:01:12.526Z,45.15
2022-12-12T09:03:40.666Z,45.95
2022-12-12T09:06:11.199Z,50.22
2022-12-12T09:08:39.760Z,46.42
2022-12-12T09:11:09.437Z,46.95
2022-12-12T09:13:38.054Z,45.55
2022-12-12T09:16:07.179Z,44.65
2022-12-12T09:18:36.060Z,46.85
2022-12-12T09:21:04.924Z,40.75
2022-12-12T09:23:34.759Z,53.63
2022-12-12T09:26:05.490Z,46.47
2022-12-12T09:28:33.437Z,51.28
2022-12-12T09:31:01.742Z,42.30
2022-12-12T09:33:29.521Z,43.17
2022-12-12T09:35:59.548Z,45.92
2022-12-12T09:38:28.221Z,43.97
2022-12-12T09:41:00.254Z,44.00
2022-12-12T09:43:32.126Z,47.10
2022-12-12T09:46:01.669Z,42.72
2022-12-12T09:48:39.266Z,50.78
2022-12-12T09:51:07.729Z,41.22
2022-12-12T09:53:35.688Z,42.60
2022-12-12T09:56:11.770Z,38.63
2022-12-12T09:58:49.051Z,52.42
2022-12-12T10:01:26.060Z,37.70
2022-12-12T10:04:10.347Z,45.70
2022-12-12T10:07:25.103Z,42.53
2022-12-12T10:10:02.948Z,39.63
2022-12-12T10:12:32.808Z,44.80
2022-12-12T10:15:04.625Z,46.88
2022-12-12T10:17:36.969Z,45.07
2022-12-12T10:20:09.126Z,51.08
2022-12-12T10:22:45.839Z,40.05
2022-12-12T10:25:21.641Z,41.38
2022-12-12T10:27:52.078Z,43.58
2022-12-12T10:30:22.166Z,41.00
2022-12-12T10:33:04.029Z,44.53
2022-12-12T10:35:42.802Z,48.17
2022-12-12T10:38:29.611Z,42.63
2022-12-12T10:41:05.853Z,40.95
2022-12-12T10:43:41.724Z,48.78
2022-12-12T10:46:29.054Z,38.80
2022-12-12T10:48:57.604Z,42.40
2022-12-12T10:51:28.555Z,44.50
2022-12-12T10:53:57.881Z,39.17
2022-12-12T10:56:28.945Z,41.45
2022-12-12T10:58:58.678Z,46.83
2022-12-12T11:02:00.711Z,48.17
2022-12-12T11:04:17.204Z,39.50
2022-12-12T11:06:49.432Z,41.35
2022-12-12T11:09:20.934Z,41.45
2022-12-12T11:11:59.705Z,41.72
2022-12-12T11:14:33.688Z,42.97
2022-12-12T11:17:02.134Z,42.88
2022-12-12T11:19:39.161Z,42.70
2022-12-12T11:22:07.619Z,45.35
2022-12-12T11:24:43.405Z,33.95
2022-12-12T11:27:20.955Z,55.72
2022-12-12T11:29:51.449Z,47.22
2022-12-12T11:32:23.270Z,52.17
2022-12-12T11:34:54.947Z,46.17
2022-12-12T11:37:26.689Z,41.65
2022-12-12T11:39:57.803Z,45.23
2022-12-12T11:42:29.293Z,46.13
2022-12-12T11:45:03.216Z,41.92
2022-12-12T11:47:38.342Z,40.00
2022-12-12T11:50:21.729Z,43.65
2022-12-12T11:52:52.261Z,49.35
2022-12-12T11:55:31.459Z,48.55
2022-12-12T11:58:16.884Z,57.70
2022-12-12T12:00:50.227Z,47.47
2022-12-12T12:03:28.024Z,46.08
2022-12-12T12:06:07.947Z,53.20
2022-12-12T12:08:48.413Z,44.88
2022-12-12T12:11:28.785Z,44.95
2022-12-12T12:14:15.821Z,39.13
2022-12-12T12:16:52.612Z,39.00
2022-12-12T12:19:29.031Z,41.00
2022-12-12T12:22:06.531Z,47.38
2022-12-12T12:25:10.909Z,41.53
2022-12-12T12:27:48.240Z,43.00
2022-12-12T12:30:23.667Z,41.35
2022-12-12T12:33:03.624Z,43.63
2022-12-12T12:35:34.026Z,61.10
2022-12-12T12:38:17.371Z,46.38
2022-12-12T12:41:02.819Z,43.50
2022-12-12T12:43:51.539Z,42.72
2022-12-12T12:46:28.897Z,44.28
2022-12-12T12:49:02.030Z,42.53
2022-12-12T12:51:34.233Z,40.38
2022-12-12T12:54:05.716Z,32.45
2022-12-12T12:56:43.686Z,32.30
2022-12-12T12:59:18.270Z,39.08
2022-12-12T13:01:50.463Z,40.42
2022-12-12T13:04:21.991Z,38.35
2022-12-12T13:06:55.766Z,34.42
2022-12-12T13:09:33.335Z,31.58
2022-12-12T13:12:06.529Z,35.20
2022-12-12T13:14:45.713Z,37.30
2022-12-12T13:17:19.294Z,41.15
2022-12-12T13:19:50.853Z,42.67
2022-12-12T13:22:27.436Z,43.53
2022-12-12T13:25:00.458Z,39.67
2022-12-12T13:27:34.567Z,38.60
2022-12-12T13:30:11.775Z,39.75
2022-12-12T13:33:00.759Z,40.13
2022-12-12T13:35:32.575Z,41.88
2022-12-12T13:38:01.412Z,39.28
2022-12-12T13:40:31.811Z,36.78
2022-12-12T13:43:09.026Z,42.40
2022-12-12T13:45:48.002Z,35.25
2022-12-12T13:48:44.482Z,35.67
2022-12-12T13:51:34.685Z,32.42
2022-12-12T13:54:54.711Z,36.40
2022-12-12T13:57:29.363Z,33.78
2022-12-12T14:00:24.951Z,22.45
2022-12-12T14:03:01.502Z,36.67
2022-12-12T14:05:33.847Z,35.75
2022-12-12T14:08:08.316Z,38.42
2022-12-12T14:10:40.728Z,38.25
2022-12-12T14:13:26.796Z,36.38
2022-12-12T14:16:04.244Z,41.35
2022-12-12T14:18:37.956Z,37.88
2022-12-12T14:21:09.341Z,37.08
2022-12-12T14:23:41.908Z,36.38
2022-12-12T14:26:48.692Z,30.52
2022-12-12T14:29:25.157Z,36.92
2022-12-12T14:32:06.746Z,37.38
2022-12-12T14:34:46.525Z,38.13
2022-12-12T14:37:39.142Z,42.20
2022-12-12T14:40:26.906Z,37.45
2022-12-12T14:43:19.135Z,38.92
2022-12-12T14:48:24.851Z,36.55
2022-12-12T14:51:07.516Z,40.63
2022-12-12T14:56:10.755Z,32.60
2022-12-12T14:58:42.685Z,46.70
2022-12-12T15:01:10.934Z,38.88
2022-12-12T15:03:42.809Z,41.55
2022-12-12T15:06:28.953Z,43.95
2022-12-12T15:08:59.175Z,46.95
2022-12-12T15:11:31.707Z,45.03
2022-12-12T15:14:00.911Z,49.03
2022-12-12T15:16:33.385Z,41.63
2022-12-12T15:19:03.159Z,42.45
2022-12-12T15:21:34.004Z,42.40
2022-12-12T15:24:02.060Z,43.35
2022-12-12T15:26:30.782Z,37.78
2022-12-12T15:28:58.981Z,38.97
2022-12-12T15:31:26.949Z,36.63
2022-12-12T15:33:55.301Z,36.72
2022-12-12T15:36:27.601Z,37.05
2022-12-12T15:39:15.551Z,39.60
2022-12-12T15:41:44.395Z,35.38
2022-12-12T15:44:18.100Z,45.63
2022-12-12T15:46:48.639Z,41.88
2022-12-12T15:49:39.679Z,51.15
2022-12-12T15:52:12.967Z,54.42
2022-12-12T15:54:49.431Z,42.13
2022-12-12T15:57:19.215Z,44.33
2022-12-12T15:59:47.746Z,44.00
2022-12-12T16:02:27.904Z,32.55
2022-12-12T16:05:02.623Z,47.45
2022-12-12T16:07:36.447Z,51.72
2022-12-12T16:10:22.823Z,87.78
2022-12-12T16:12:59.144Z,53.65
2022-12-12T16:15:31.992Z,53.08
2022-12-12T16:18:01.854Z,37.33
2022-12-12T16:20:30.916Z,51.08
2022-12-12T16:23:11.200Z,59.78
2022-12-12T16:25:40.657Z,52.40
2022-12-12T16:28:26.966Z,50.15
2022-12-12T16:30:57.660Z,50.80
2022-12-12T16:33:31.688Z,47.38
2022-12-12T16:36:01.648Z,50.28
2022-12-12T16:38:30.828Z,51.38
2022-12-12T16:41:02.661Z,47.03
2022-12-12T16:43:32.278Z,31.45
2022-12-12T16:46:00.631Z,50.47
2022-12-12T16:48:33.299Z,48.72
2022-12-12T16:51:04.500Z,55.08
2022-12-12T16:53:32.843Z,53.38
2022-12-12T16:56:03.034Z,47.65
2022-12-12T16:58:30.945Z,50.70
2022-12-12T17:01:00.142Z,54.40
2022-12-12T17:03:28.336Z,55.95
2022-12-12T17:05:56.546Z,54.05
2022-12-12T17:08:24.526Z,56.90
2022-12-12T17:11:10.094Z,58.63
2022-12-12T17:13:42.710Z,53.75
2022-12-12T17:16:10.813Z,40.50
2022-12-12T17:18:38.587Z,55.78
2022-12-12T17:21:07.062Z,53.45
2022-12-12T17:23:34.934Z,53.78
2022-12-12T17:26:04.823Z,59.47
2022-12-12T17:28:34.371Z,56.67
2022-12-12T17:31:08.490Z,55.17
2022-12-12T17:33:45.789Z,50.47
2022-12-12T17:36:17.716Z,47.38
2022-12-12T17:38:45.656Z,44.17
2022-12-12T17:41:14.056Z,52.50
2022-12-12T17:43:42.401Z,54.30
2022-12-12T17:46:15.027Z,80.78
2022-12-12T17:51:13.879Z,51.00
2022-12-12T17:53:42.193Z,62.67
2022-12-12T17:56:12.069Z,39.50
2022-12-12T17:58:42.015Z,68.10
2022-12-12T18:01:14.076Z,54.40
2022-12-12T18:03:43.059Z,73.50
2022-12-12T18:06:12.071Z,65.43
2022-12-12T18:08:40.131Z,77.22
2022-12-12T18:11:09.113Z,83.00
2022-12-12T18:13:38.517Z,77.63
2022-12-12T18:16:08.741Z,51.97
2022-12-12T18:18:38.667Z,68.78
2022-12-12T18:21:10.527Z,68.43
2022-12-12T18:23:40.898Z,79.05
2022-12-12T18:26:11.224Z,70.80
2022-12-12T18:28:39.388Z,79.95
2022-12-12T18:31:08.284Z,48.05
2022-12-12T18:33:36.342Z,81.35
2022-12-12T18:36:07.997Z,72.65
2022-12-12T18:38:37.270Z,75.28
2022-12-12T18:41:06.499Z,83.75
2022-12-12T18:43:35.119Z,82.45
2022-12-12T18:46:05.143Z,70.97
2022-12-12T18:48:33.270Z,84.32
2022-12-12T18:51:06.904Z,86.78
2022-12-12T18:53:35.405Z,92.25
2022-12-12T18:56:06.036Z,100.80
2022-12-12T18:58:34.391Z,53.38
2022-12-12T19:01:06.986Z,91.82
2022-12-12T19:03:35.233Z,94.30
2022-12-12T19:06:07.147Z,90.47
2022-12-12T19:08:35.261Z,53.33
2022-12-12T19:11:03.305Z,78.35
2022-12-12T19:13:31.915Z,91.90
2022-12-12T19:16:04.339Z,81.38
2022-12-12T19:18:32.484Z,94.07
2022-12-12T19:21:06.560Z,74.50
2022-12-12T19:23:34.828Z,90.78
2022-12-12T19:26:06.557Z,86.55
2022-12-12T19:28:34.576Z,73.47
2022-12-12T19:31:08.291Z,87.85
2022-12-12T19:33:36.531Z,81.80
2022-12-12T19:36:14.320Z,86.00
2022-12-12T19:38:42.472Z,78.57
2022-12-12T19:41:13.129Z,76.82
2022-12-12T19:43:41.504Z,85.13
2022-12-12T19:46:12.150Z,79.00
2022-12-12T19:48:40.458Z,82.18
2022-12-12T19:51:12.173Z,88.68
2022-12-12T19:53:42.346Z,77.87
2022-12-12T19:56:13.176Z,74.68
2022-12-12T19:58:41.321Z,67.20
2022-12-12T20:01:11.640Z,87.68
2022-12-12T20:03:40.318Z,73.32
2022-12-12T20:06:12.239Z,71.60
2022-12-12T20:08:40.208Z,73.85
2022-12-12T20:11:10.276Z,66.70
2022-12-12T20:13:39.045Z,64.65
2022-12-12T20:16:09.116Z,65.43
2022-12-12T20:18:37.623Z,66.88
2022-12-12T20:21:06.747Z,58.95
2022-12-12T20:23:46.759Z,64.50
2022-12-12T20:26:17.109Z,54.92
2022-12-12T20:28:45.580Z,63.67
2022-12-12T20:31:17.355Z,54.80
2022-12-12T20:33:46.050Z,50.72
2022-12-12T20:36:16.464Z,47.47
2022-12-12T20:38:46.151Z,56.88
2022-12-12T20:41:16.761Z,49.30
2022-12-12T20:43:45.479Z,47.50
2022-12-12T20:46:15.534Z,26.55
2022-12-12T20:48:44.136Z,40.97
2022-12-12T20:51:45.521Z,42.55
2022-12-12T20:54:05.460Z,37.53
2022-12-12T20:56:34.727Z,41.55
2022-12-12T20:59:04.584Z,43.20
2022-12-12T21:01:34.673Z,40.28
2022-12-12T21:04:04.146Z,43.13
2022-12-12T21:06:34.971Z,49.28
2022-12-12T21:09:06.510Z,42.60
2022-12-12T21:11:34.990Z,37.47
2022-12-12T21:14:03.300Z,38.05
2022-12-12T21:16:34.293Z,49.55
2022-12-12T21:19:05.894Z,36.20
2022-12-12T21:21:34.559Z,41.40
2022-12-12T21:24:04.295Z,45.78
2022-12-12T21:26:33.055Z,41.92
2022-12-12T21:29:02.213Z,42.65
2022-12-12T21:31:33.113Z,49.38
2022-12-12T21:34:01.776Z,40.20
2022-12-12T21:36:30.960Z,38.40
2022-12-12T21:39:00.385Z,39.80
2022-12-12T21:41:29.738Z,44.45
2022-12-12T21:43:59.808Z,45.70
2022-12-12T21:46:30.064Z,43.53
2022-12-12T21:49:16.460Z,51.67
2022-12-12T21:51:45.034Z,54.08
2022-12-12T21:54:15.501Z,44.47
2022-12-12T21:56:45.125Z,50.05
2022-12-12T21:59:14.262Z,54.40
2022-12-12T22:01:42.803Z,50.67
2022-12-12T22:04:11.302Z,58.88
2022-12-12T22:06:39.749Z,44.22
2022-12-12T22:09:09.635Z,46.92
2022-12-12T22:11:41.776Z,52.83
2022-12-12T22:14:22.022Z,38.43
2022-12-12T22:16:50.499Z,32.88
2022-12-12T22:19:19.023Z,39.08
2022-12-12T22:21:48.943Z,37.85
2022-12-12T22:24:17.747Z,44.03
2022-12-12T22:26:47.871Z,43.88
2022-12-12T22:29:18.190Z,36.30
2022-12-12T22:31:49.883Z,35.05
2022-12-12T22:34:19.919Z,38.78
2022-12-12T22:36:48.141Z,33.90
2022-12-12T22:39:18.815Z,32.60
2022-12-12T22:41:48.045Z,31.70
2022-12-12T22:44:17.292Z,35.58
2022-12-12T22:46:47.866Z,38.97
2022-12-12T22:49:17.965Z,31.85
2022-12-12T22:51:46.647Z,36.58
2022-12-12T22:54:14.769Z,22.42
2022-12-12T22:56:43.279Z,29.50
2022-12-12T22:59:12.791Z,27.08
2022-12-12T23:01:41.483Z,27.10
2022-12-12T23:04:14.102Z,27.75
2022-12-12T23:06:43.032Z,26.67
2022-12-12T23:09:15.222Z,27.20
2022-12-12T23:14:14.725Z,24.88
2022-12-12T23:16:43.622Z,24.55
2022-12-12T23:19:15.377Z,23.08
2022-12-12T23:21:43.828Z,22.98
2022-12-12T23:24:12.217Z,38.22
2022-12-12T23:26:40.830Z,30.20
2022-12-12T23:29:12.647Z,33.17
2022-12-12T23:31:40.764Z,45.63
2022-12-12T23:34:10.511Z,42.05
2022-12-12T23:36:40.119Z,46.30
2022-12-12T23:39:09.282Z,43.03
2022-12-12T23:41:37.297Z,45.65
2022-12-12T23:44:05.981Z,49.75
2022-12-12T23:46:35.943Z,40.60
2022-12-12T23:49:06.159Z,50.22
2022-12-12T23:51:36.395Z,52.55
2022-12-12T23:54:07.999Z,53.13
2022-12-12T23:56:36.485Z,46.65
2022-12-12T23:59:04.698Z,45.08
